sensor_id;sensor_type;location;lat;lon;timestamp;temperature;humidity
38084;DHT22;23894;51.466;7.444;2022-09-21T00:00:43;9.10;99.90
38084;DHT22;23894;51.466;7.444;2022-09-21T00:02:44;9.00;99.90
38084;DHT22;23894;51.466;7.444;2022-09-21T00:04:46;9.10;99.90
38084;DHT22;23894;51.466;7.444;2022-09-21T00:06:48;9.00;99.90
38084;DHT22;23894;51.466;7.444;2022-09-21T00:08:50;9.00;99.90
38084;DHT22;23894;51.466;7.444;2022-09-21T00:10:51;8.90;99.90
38084;DHT22;23894;51.466;7.444;2022-09-21T00:12:54;8.90;99.90
38084;DHT22;23894;51.466;7.444;2022-09-21T00:14:57;8.90;99.90
38084;DHT22;23894;51.466;7.444;2022-09-21T00:16:59;8.90;99.90
38084;DHT22;23894;51.466;7.444;2022-09-21T00:18:59;8.80;99.90
38084;DHT22;23894;51.466;7.444;2022-09-21T00:21:04;8.80;99.90
38084;DHT22;23894;51.466;7.444;2022-09-21T00:23:06;8.80;99.90
38084;DHT22;23894;51.466;7.444;2022-09-21T00:25:08;8.70;99.90
38084;DHT22;23894;51.466;7.444;2022-09-21T00:27:10;8.70;99.90
38084;DHT22;23894;51.466;7.444;2022-09-21T00:29:11;8.70;99.90
38084;DHT22;23894;51.466;7.444;2022-09-21T00:31:15;8.70;99.90
38084;DHT22;23894;51.466;7.444;2022-09-21T00:33:18;8.70;99.90
38084;DHT22;23894;51.466;7.444;2022-09-21T00:35:20;8.70;99.90
38084;DHT22;23894;51.466;7.444;2022-09-21T00:37:23;8.60;99.90
38084;DHT22;23894;51.466;7.444;2022-09-21T00:39:25;8.60;99.90
38084;DHT22;23894;51.466;7.444;2022-09-21T00:41:29;8.60;99.90
38084;DHT22;23894;51.466;7.444;2022-09-21T00:43:36;8.60;99.90
38084;DHT22;23894;51.466;7.444;2022-09-21T00:45:38;8.60;99.90
38084;DHT22;23894;51.466;7.444;2022-09-21T00:47:42;8.60;99.90
38084;DHT22;23894;51.466;7.444;2022-09-21T00:49:47;8.60;99.90
38084;DHT22;23894;51.466;7.444;2022-09-21T00:51:53;8.50;99.90
38084;DHT22;23894;51.466;7.444;2022-09-21T00:54:01;8.60;99.90
38084;DHT22;23894;51.466;7.444;2022-09-21T00:56:03;8.50;99.90
38084;DHT22;23894;51.466;7.444;2022-09-21T00:58:09;8.50;99.90
38084;DHT22;23894;51.466;7.444;2022-09-21T01:00:11;8.50;99.90
38084;DHT22;23894;51.466;7.444;2022-09-21T01:02:13;8.40;99.90
38084;DHT22;23894;51.466;7.444;2022-09-21T01:04:16;8.40;99.90
38084;DHT22;23894;51.466;7.444;2022-09-21T01:06:19;8.40;99.90
38084;DHT22;23894;51.466;7.444;2022-09-21T01:08:23;8.40;99.90
38084;DHT22;23894;51.466;7.444;2022-09-21T01:10:31;8.40;99.90
38084;DHT22;23894;51.466;7.444;2022-09-21T01:15:23;8.30;99.90
38084;DHT22;23894;51.466;7.444;2022-09-21T01:25:13;8.30;99.90
38084;DHT22;23894;51.466;7.444;2022-09-21T01:34:08;8.30;99.90
38084;DHT22;23894;51.466;7.444;2022-09-21T01:36:13;8.30;99.90
38084;DHT22;23894;51.466;7.444;2022-09-21T01:38:48;8.30;99.90
38084;DHT22;23894;51.466;7.444;2022-09-21T01:40:58;8.30;99.90
38084;DHT22;23894;51.466;7.444;2022-09-21T01:43:02;8.30;99.90
38084;DHT22;23894;51.466;7.444;2022-09-21T01:45:05;8.20;99.90
38084;DHT22;23894;51.466;7.444;2022-09-21T01:47:09;8.20;99.90
38084;DHT22;23894;51.466;7.444;2022-09-21T01:49:20;8.20;99.90
38084;DHT22;23894;51.466;7.444;2022-09-21T01:51:26;8.20;99.90
38084;DHT22;23894;51.466;7.444;2022-09-21T01:53:38;8.20;99.90
38084;DHT22;23894;51.466;7.444;2022-09-21T01:55:54;8.20;99.90
38084;DHT22;23894;51.466;7.444;2022-09-21T01:58:15;8.10;99.90
38084;DHT22;23894;51.466;7.444;2022-09-21T02:00:17;8.20;99.90
38084;DHT22;23894;51.466;7.444;2022-09-21T02:04:48;8.10;99.90
38084;DHT22;23894;51.466;7.444;2022-09-21T02:06:49;8.10;99.90
38084;DHT22;23894;51.466;7.444;2022-09-21T02:08:50;8.10;99.90
38084;DHT22;23894;51.466;7.444;2022-09-21T02:10:53;8.10;99.90
38084;DHT22;23894;51.466;7.444;2022-09-21T02:12:58;8.10;99.90
38084;DHT22;23894;51.466;7.444;2022-09-21T02:15:02;8.10;99.90
38084;DHT22;23894;51.466;7.444;2022-09-21T02:26:18;8.00;99.90
38084;DHT22;23894;51.466;7.444;2022-09-21T02:29:45;8.00;99.90
38084;DHT22;23894;51.466;7.444;2022-09-21T02:33:52;7.90;99.90
38084;DHT22;23894;51.466;7.444;2022-09-21T02:36:07;7.90;99.90
38084;DHT22;23894;51.466;7.444;2022-09-21T02:38:41;7.90;99.90
38084;DHT22;23894;51.466;7.444;2022-09-21T02:43:32;7.90;99.90
38084;DHT22;23894;51.466;7.444;2022-09-21T02:45:44;7.80;99.90
38084;DHT22;23894;51.466;7.444;2022-09-21T02:49:57;7.80;99.90
38084;DHT22;23894;51.466;7.444;2022-09-21T02:52:06;7.80;99.90
38084;DHT22;23894;51.466;7.444;2022-09-21T02:54:13;7.80;99.90
38084;DHT22;23894;51.466;7.444;2022-09-21T02:56:15;7.80;99.90
38084;DHT22;23894;51.466;7.444;2022-09-21T02:58:18;7.80;99.90
38084;DHT22;23894;51.466;7.444;2022-09-21T03:00:22;7.80;99.90
38084;DHT22;23894;51.466;7.444;2022-09-21T03:02:38;7.80;99.90
38084;DHT22;23894;51.466;7.444;2022-09-21T03:04:43;7.80;99.90
38084;DHT22;23894;51.466;7.444;2022-09-21T03:06:48;7.80;99.90
38084;DHT22;23894;51.466;7.444;2022-09-21T03:08:50;7.80;99.90
38084;DHT22;23894;51.466;7.444;2022-09-21T03:10:52;7.80;99.90
38084;DHT22;23894;51.466;7.444;2022-09-21T03:12:56;7.80;99.90
38084;DHT22;23894;51.466;7.444;2022-09-21T03:15:00;7.70;99.90
38084;DHT22;23894;51.466;7.444;2022-09-21T03:17:01;7.70;99.90
38084;DHT22;23894;51.466;7.444;2022-09-21T03:19:04;7.70;99.90
38084;DHT22;23894;51.466;7.444;2022-09-21T03:21:05;7.70;99.90
38084;DHT22;23894;51.466;7.444;2022-09-21T03:23:08;7.70;99.90
38084;DHT22;23894;51.466;7.444;2022-09-21T03:25:09;7.70;99.90
38084;DHT22;23894;51.466;7.444;2022-09-21T03:27:13;7.60;99.90
38084;DHT22;23894;51.466;7.444;2022-09-21T03:29:15;7.70;99.90
38084;DHT22;23894;51.466;7.444;2022-09-21T03:31:17;7.70;99.90
38084;DHT22;23894;51.466;7.444;2022-09-21T03:33:19;7.60;99.90
38084;DHT22;23894;51.466;7.444;2022-09-21T03:35:21;7.60;99.90
38084;DHT22;23894;51.466;7.444;2022-09-21T03:37:24;7.60;99.90
38084;DHT22;23894;51.466;7.444;2022-09-21T03:39:25;7.50;99.90
38084;DHT22;23894;51.466;7.444;2022-09-21T03:41:27;7.50;99.90
38084;DHT22;23894;51.466;7.444;2022-09-21T03:43:29;7.50;99.90
38084;DHT22;23894;51.466;7.444;2022-09-21T03:45:31;7.50;99.90
38084;DHT22;23894;51.466;7.444;2022-09-21T03:47:34;7.40;99.90
38084;DHT22;23894;51.466;7.444;2022-09-21T03:49:35;7.50;99.90
38084;DHT22;23894;51.466;7.444;2022-09-21T03:51:38;7.50;99.90
38084;DHT22;23894;51.466;7.444;2022-09-21T03:53:40;7.40;99.90
38084;DHT22;23894;51.466;7.444;2022-09-21T03:55:42;7.40;99.90
38084;DHT22;23894;51.466;7.444;2022-09-21T03:57:44;7.50;99.90
38084;DHT22;23894;51.466;7.444;2022-09-21T03:59:46;7.40;99.90
38084;DHT22;23894;51.466;7.444;2022-09-21T04:01:48;7.50;99.90
38084;DHT22;23894;51.466;7.444;2022-09-21T04:03:50;7.50;99.90
38084;DHT22;23894;51.466;7.444;2022-09-21T04:05:52;7.50;99.90
38084;DHT22;23894;51.466;7.444;2022-09-21T04:07:53;7.50;99.90
38084;DHT22;23894;51.466;7.444;2022-09-21T04:09:56;7.40;99.90
38084;DHT22;23894;51.466;7.444;2022-09-21T04:11:57;7.40;99.90
38084;DHT22;23894;51.466;7.444;2022-09-21T04:14:01;7.40;99.90
38084;DHT22;23894;51.466;7.444;2022-09-21T04:16:03;7.40;99.90
38084;DHT22;23894;51.466;7.444;2022-09-21T04:18:04;7.40;99.90
38084;DHT22;23894;51.466;7.444;2022-09-21T04:20:07;7.50;99.90
38084;DHT22;23894;51.466;7.444;2022-09-21T04:22:10;7.40;99.90
38084;DHT22;23894;51.466;7.444;2022-09-21T04:24:13;7.40;99.90
38084;DHT22;23894;51.466;7.444;2022-09-21T04:26:26;7.40;99.90
38084;DHT22;23894;51.466;7.444;2022-09-21T04:28:28;7.40;99.90
38084;DHT22;23894;51.466;7.444;2022-09-21T04:30:30;7.30;99.90
38084;DHT22;23894;51.466;7.444;2022-09-21T04:32:34;7.30;99.90
38084;DHT22;23894;51.466;7.444;2022-09-21T04:34:36;7.30;99.90
38084;DHT22;23894;51.466;7.444;2022-09-21T04:36:41;7.30;99.90
38084;DHT22;23894;51.466;7.444;2022-09-21T04:38:43;7.20;99.90
38084;DHT22;23894;51.466;7.444;2022-09-21T04:40:47;7.20;99.90
38084;DHT22;23894;51.466;7.444;2022-09-21T04:42:54;7.20;99.90
38084;DHT22;23894;51.466;7.444;2022-09-21T04:44:56;7.20;99.90
38084;DHT22;23894;51.466;7.444;2022-09-21T04:46:58;7.20;99.90
38084;DHT22;23894;51.466;7.444;2022-09-21T04:49:00;7.20;99.90
38084;DHT22;23894;51.466;7.444;2022-09-21T04:51:04;7.20;99.90
38084;DHT22;23894;51.466;7.444;2022-09-21T04:53:09;7.10;99.90
38084;DHT22;23894;51.466;7.444;2022-09-21T04:55:11;7.10;99.90
38084;DHT22;23894;51.466;7.444;2022-09-21T04:57:14;7.10;99.90
38084;DHT22;23894;51.466;7.444;2022-09-21T04:59:16;7.10;99.90
38084;DHT22;23894;51.466;7.444;2022-09-21T05:01:16;7.10;99.90
38084;DHT22;23894;51.466;7.444;2022-09-21T05:03:18;7.10;99.90
38084;DHT22;23894;51.466;7.444;2022-09-21T05:05:19;7.10;99.90
38084;DHT22;23894;51.466;7.444;2022-09-21T05:07:21;7.10;99.90
38084;DHT22;23894;51.466;7.444;2022-09-21T05:09:23;7.10;99.90
38084;DHT22;23894;51.466;7.444;2022-09-21T05:11:43;7.00;99.90
38084;DHT22;23894;51.466;7.444;2022-09-21T05:13:46;7.00;99.90
38084;DHT22;23894;51.466;7.444;2022-09-21T05:15:47;7.10;99.90
38084;DHT22;23894;51.466;7.444;2022-09-21T05:17:49;7.00;99.90
38084;DHT22;23894;51.466;7.444;2022-09-21T05:19:51;7.00;99.90
38084;DHT22;23894;51.466;7.444;2022-09-21T05:21:57;7.00;99.90
38084;DHT22;23894;51.466;7.444;2022-09-21T05:23:58;7.00;99.90
38084;DHT22;23894;51.466;7.444;2022-09-21T05:25:59;7.00;99.90
38084;DHT22;23894;51.466;7.444;2022-09-21T05:28:02;7.00;99.90
38084;DHT22;23894;51.466;7.444;2022-09-21T05:30:04;7.00;99.90
38084;DHT22;23894;51.466;7.444;2022-09-21T05:39:59;7.00;99.90
38084;DHT22;23894;51.466;7.444;2022-09-21T05:42:01;7.00;99.90
38084;DHT22;23894;51.466;7.444;2022-09-21T05:44:04;7.00;99.90
38084;DHT22;23894;51.466;7.444;2022-09-21T05:48:57;6.90;99.90
38084;DHT22;23894;51.466;7.444;2022-09-21T05:53:49;6.90;99.90
38084;DHT22;23894;51.466;7.444;2022-09-21T05:56:02;6.90;99.90
38084;DHT22;23894;51.466;7.444;2022-09-21T06:00:57;7.00;99.90
38084;DHT22;23894;51.466;7.444;2022-09-21T06:03:36;7.10;99.90
38084;DHT22;23894;51.466;7.444;2022-09-21T06:05:44;7.10;99.90
38084;DHT22;23894;51.466;7.444;2022-09-21T06:07:45;7.10;99.90
38084;DHT22;23894;51.466;7.444;2022-09-21T06:09:47;7.20;99.90
38084;DHT22;23894;51.466;7.444;2022-09-21T06:11:48;7.20;99.90
38084;DHT22;23894;51.466;7.444;2022-09-21T06:13:48;7.20;99.90
38084;DHT22;23894;51.466;7.444;2022-09-21T06:15:49;7.30;99.90
38084;DHT22;23894;51.466;7.444;2022-09-21T06:17:50;7.40;99.90
38084;DHT22;23894;51.466;7.444;2022-09-21T06:19:50;7.40;99.90
38084;DHT22;23894;51.466;7.444;2022-09-21T06:21:51;7.40;99.90
38084;DHT22;23894;51.466;7.444;2022-09-21T06:23:51;7.50;99.90
38084;DHT22;23894;51.466;7.444;2022-09-21T06:25:52;7.50;99.90
38084;DHT22;23894;51.466;7.444;2022-09-21T06:27:54;7.60;99.90
38084;DHT22;23894;51.466;7.444;2022-09-21T06:29:55;7.60;99.90
38084;DHT22;23894;51.466;7.444;2022-09-21T06:31:55;7.70;99.90
38084;DHT22;23894;51.466;7.444;2022-09-21T06:33:56;7.80;99.90
38084;DHT22;23894;51.466;7.444;2022-09-21T06:35:58;7.80;99.90
38084;DHT22;23894;51.466;7.444;2022-09-21T06:38:00;7.90;99.90
38084;DHT22;23894;51.466;7.444;2022-09-21T06:40:01;8.00;99.90
38084;DHT22;23894;51.466;7.444;2022-09-21T06:42:02;8.00;99.90
38084;DHT22;23894;51.466;7.444;2022-09-21T06:44:03;8.10;99.90
38084;DHT22;23894;51.466;7.444;2022-09-21T06:46:04;8.20;99.90
38084;DHT22;23894;51.466;7.444;2022-09-21T06:48:04;8.20;99.90
38084;DHT22;23894;51.466;7.444;2022-09-21T06:50:05;8.40;99.90
38084;DHT22;23894;51.466;7.444;2022-09-21T06:52:06;8.40;99.90
38084;DHT22;23894;51.466;7.444;2022-09-21T06:54:07;8.50;99.90
38084;DHT22;23894;51.466;7.444;2022-09-21T06:56:08;8.50;99.90
38084;DHT22;23894;51.466;7.444;2022-09-21T06:58:09;8.60;99.90
38084;DHT22;23894;51.466;7.444;2022-09-21T07:00:11;8.70;99.90
38084;DHT22;23894;51.466;7.444;2022-09-21T07:02:12;8.80;99.90
38084;DHT22;23894;51.466;7.444;2022-09-21T07:04:12;8.80;99.90
38084;DHT22;23894;51.466;7.444;2022-09-21T07:06:13;8.90;99.90
38084;DHT22;23894;51.466;7.444;2022-09-21T07:08:14;9.00;99.90
38084;DHT22;23894;51.466;7.444;2022-09-21T07:10:15;9.00;99.90
38084;DHT22;23894;51.466;7.444;2022-09-21T07:12:17;9.10;99.90
38084;DHT22;23894;51.466;7.444;2022-09-21T07:14:18;9.20;99.90
38084;DHT22;23894;51.466;7.444;2022-09-21T07:16:18;9.20;99.90
38084;DHT22;23894;51.466;7.444;2022-09-21T07:18:19;9.30;99.90
38084;DHT22;23894;51.466;7.444;2022-09-21T07:20:20;9.40;99.90
38084;DHT22;23894;51.466;7.444;2022-09-21T07:22:21;9.50;99.90
38084;DHT22;23894;51.466;7.444;2022-09-21T07:24:22;9.50;99.90
38084;DHT22;23894;51.466;7.444;2022-09-21T07:26:22;9.70;99.90
38084;DHT22;23894;51.466;7.444;2022-09-21T07:28:23;9.70;99.90
38084;DHT22;23894;51.466;7.444;2022-09-21T07:30:23;9.80;99.90
38084;DHT22;23894;51.466;7.444;2022-09-21T07:32:24;9.90;99.90
38084;DHT22;23894;51.466;7.444;2022-09-21T07:34:25;10.10;99.90
38084;DHT22;23894;51.466;7.444;2022-09-21T07:36:26;10.20;99.90
38084;DHT22;23894;51.466;7.444;2022-09-21T07:38:26;10.20;99.90
38084;DHT22;23894;51.466;7.444;2022-09-21T07:40:27;10.30;99.90
38084;DHT22;23894;51.466;7.444;2022-09-21T07:42:28;10.40;99.90
38084;DHT22;23894;51.466;7.444;2022-09-21T07:44:29;10.50;99.90
38084;DHT22;23894;51.466;7.444;2022-09-21T07:46:30;10.60;99.90
38084;DHT22;23894;51.466;7.444;2022-09-21T07:48:30;10.70;99.90
38084;DHT22;23894;51.466;7.444;2022-09-21T07:50:32;10.80;99.90
38084;DHT22;23894;51.466;7.444;2022-09-21T07:52:35;10.90;99.90
38084;DHT22;23894;51.466;7.444;2022-09-21T07:54:36;10.90;99.90
38084;DHT22;23894;51.466;7.444;2022-09-21T07:56:36;11.10;99.90
38084;DHT22;23894;51.466;7.444;2022-09-21T07:58:37;11.20;99.90
38084;DHT22;23894;51.466;7.444;2022-09-21T08:00:57;11.20;99.90
38084;DHT22;23894;51.466;7.444;2022-09-21T08:02:58;11.30;99.90
38084;DHT22;23894;51.466;7.444;2022-09-21T08:04:59;11.40;99.90
38084;DHT22;23894;51.466;7.444;2022-09-21T08:07:00;11.50;99.90
38084;DHT22;23894;51.466;7.444;2022-09-21T08:09:03;11.60;99.90
38084;DHT22;23894;51.466;7.444;2022-09-21T08:11:05;11.60;99.90
38084;DHT22;23894;51.466;7.444;2022-09-21T08:13:05;11.70;99.90
38084;DHT22;23894;51.466;7.444;2022-09-21T08:15:06;11.80;99.90
38084;DHT22;23894;51.466;7.444;2022-09-21T08:17:07;11.80;99.90
38084;DHT22;23894;51.466;7.444;2022-09-21T08:19:08;11.90;99.90
38084;DHT22;23894;51.466;7.444;2022-09-21T08:21:09;12.00;99.90
38084;DHT22;23894;51.466;7.444;2022-09-21T08:23:10;12.10;99.90
38084;DHT22;23894;51.466;7.444;2022-09-21T08:25:12;12.20;99.90
38084;DHT22;23894;51.466;7.444;2022-09-21T08:27:13;12.30;99.90
38084;DHT22;23894;51.466;7.444;2022-09-21T08:29:13;12.30;99.90
38084;DHT22;23894;51.466;7.444;2022-09-21T08:31:15;12.30;99.90
38084;DHT22;23894;51.466;7.444;2022-09-21T08:33:16;12.40;99.90
38084;DHT22;23894;51.466;7.444;2022-09-21T08:35:17;12.50;99.90
38084;DHT22;23894;51.466;7.444;2022-09-21T08:37:18;12.50;99.90
38084;DHT22;23894;51.466;7.444;2022-09-21T08:39:21;12.60;99.90
38084;DHT22;23894;51.466;7.444;2022-09-21T08:43:52;12.70;99.90
38084;DHT22;23894;51.466;7.444;2022-09-21T08:45:55;12.80;99.90
38084;DHT22;23894;51.466;7.444;2022-09-21T08:47:58;12.90;99.90
38084;DHT22;23894;51.466;7.444;2022-09-21T08:50:02;12.90;99.90
38084;DHT22;23894;51.466;7.444;2022-09-21T08:52:06;13.00;99.90
38084;DHT22;23894;51.466;7.444;2022-09-21T08:54:28;13.00;99.90
38084;DHT22;23894;51.466;7.444;2022-09-21T08:56:30;13.10;99.90
38084;DHT22;23894;51.466;7.444;2022-09-21T08:58:31;13.20;99.90
38084;DHT22;23894;51.466;7.444;2022-09-21T09:00:35;13.20;99.90
38084;DHT22;23894;51.466;7.444;2022-09-21T09:10:15;13.50;99.90
38084;DHT22;23894;51.466;7.444;2022-09-21T09:12:55;13.60;99.90
38084;DHT22;23894;51.466;7.444;2022-09-21T09:19:55;13.80;99.90
38084;DHT22;23894;51.466;7.444;2022-09-21T09:22:02;13.80;99.90
38084;DHT22;23894;51.466;7.444;2022-09-21T09:24:08;13.90;99.90
38084;DHT22;23894;51.466;7.444;2022-09-21T09:27:01;14.00;99.90
38084;DHT22;23894;51.466;7.444;2022-09-21T09:29:32;14.10;99.90
38084;DHT22;23894;51.466;7.444;2022-09-21T09:31:35;14.20;99.90
38084;DHT22;23894;51.466;7.444;2022-09-21T09:34:14;14.20;99.90
38084;DHT22;23894;51.466;7.444;2022-09-21T09:36:17;14.30;99.90
38084;DHT22;23894;51.466;7.444;2022-09-21T09:38:26;14.30;99.90
38084;DHT22;23894;51.466;7.444;2022-09-21T09:43:02;14.50;99.90
38084;DHT22;23894;51.466;7.444;2022-09-21T09:50:09;14.60;99.90
38084;DHT22;23894;51.466;7.444;2022-09-21T09:52:14;14.60;99.90
38084;DHT22;23894;51.466;7.444;2022-09-21T09:54:17;14.70;99.90
38084;DHT22;23894;51.466;7.444;2022-09-21T09:56:18;14.80;99.90
38084;DHT22;23894;51.466;7.444;2022-09-21T09:58:21;14.80;99.90
38084;DHT22;23894;51.466;7.444;2022-09-21T10:00:22;14.90;99.90
38084;DHT22;23894;51.466;7.444;2022-09-21T10:02:25;15.00;99.90
38084;DHT22;23894;51.466;7.444;2022-09-21T10:04:26;15.00;99.90
38084;DHT22;23894;51.466;7.444;2022-09-21T10:06:31;15.10;99.90
38084;DHT22;23894;51.466;7.444;2022-09-21T10:08:42;15.10;99.90
38084;DHT22;23894;51.466;7.444;2022-09-21T10:10:43;15.20;99.90
38084;DHT22;23894;51.466;7.444;2022-09-21T10:12:45;15.20;99.90
38084;DHT22;23894;51.466;7.444;2022-09-21T10:14:51;15.30;99.90
38084;DHT22;23894;51.466;7.444;2022-09-21T10:16:54;15.30;99.90
38084;DHT22;23894;51.466;7.444;2022-09-21T10:18:57;15.50;99.90
38084;DHT22;23894;51.466;7.444;2022-09-21T10:21:08;15.50;99.90
38084;DHT22;23894;51.466;7.444;2022-09-21T10:23:15;15.60;99.90
38084;DHT22;23894;51.466;7.444;2022-09-21T10:25:17;15.70;99.90
38084;DHT22;23894;51.466;7.444;2022-09-21T10:31:26;15.90;99.90
38084;DHT22;23894;51.466;7.444;2022-09-21T10:33:29;15.90;99.90
38084;DHT22;23894;51.466;7.444;2022-09-21T10:35:30;16.00;99.90
38084;DHT22;23894;51.466;7.444;2022-09-21T10:37:35;16.00;99.90
38084;DHT22;23894;51.466;7.444;2022-09-21T10:39:45;16.00;99.90
38084;DHT22;23894;51.466;7.444;2022-09-21T10:41:58;16.00;99.90
38084;DHT22;23894;51.466;7.444;2022-09-21T10:43:59;16.10;99.90
38084;DHT22;23894;51.466;7.444;2022-09-21T10:46:01;16.10;99.90
38084;DHT22;23894;51.466;7.444;2022-09-21T10:50:23;16.30;99.90
38084;DHT22;23894;51.466;7.444;2022-09-21T10:52:33;16.40;99.90
38084;DHT22;23894;51.466;7.444;2022-09-21T10:54:35;16.50;99.90
38084;DHT22;23894;51.466;7.444;2022-09-21T10:56:35;16.60;99.90
38084;DHT22;23894;51.466;7.444;2022-09-21T10:58:36;16.70;99.90
38084;DHT22;23894;51.466;7.444;2022-09-21T11:00:43;16.70;99.90
38084;DHT22;23894;51.466;7.444;2022-09-21T11:02:44;16.90;99.90
38084;DHT22;23894;51.466;7.444;2022-09-21T11:04:49;17.00;99.90
38084;DHT22;23894;51.466;7.444;2022-09-21T11:07:00;17.10;99.90
38084;DHT22;23894;51.466;7.444;2022-09-21T11:09:11;17.20;99.90
38084;DHT22;23894;51.466;7.444;2022-09-21T11:13:46;17.40;99.90
38084;DHT22;23894;51.466;7.444;2022-09-21T11:16:10;17.50;99.90
38084;DHT22;23894;51.466;7.444;2022-09-21T11:18:28;17.50;99.90
38084;DHT22;23894;51.466;7.444;2022-09-21T11:20:35;17.60;99.90
38084;DHT22;23894;51.466;7.444;2022-09-21T11:29:57;17.80;99.90
38084;DHT22;23894;51.466;7.444;2022-09-21T11:34:35;17.90;99.90
38084;DHT22;23894;51.466;7.444;2022-09-21T11:36:49;17.90;99.90
38084;DHT22;23894;51.466;7.444;2022-09-21T11:57:16;22.90;99.90
38084;DHT22;23894;51.466;7.444;2022-09-21T11:59:41;24.70;99.90
38084;DHT22;23894;51.466;7.444;2022-09-21T12:11:05;24.10;99.90
38084;DHT22;23894;51.466;7.444;2022-09-21T12:13:18;23.30;99.90
38084;DHT22;23894;51.466;7.444;2022-09-21T12:15:28;22.70;99.90
38084;DHT22;23894;51.466;7.444;2022-09-21T12:22:08;25.50;99.90
38084;DHT22;23894;51.466;7.444;2022-09-21T12:52:25;27.70;99.90
38084;DHT22;23894;51.466;7.444;2022-09-21T12:54:43;27.50;99.90
38084;DHT22;23894;51.466;7.444;2022-09-21T12:56:57;26.80;99.90
38084;DHT22;23894;51.466;7.444;2022-09-21T12:59:36;26.00;99.90
38084;DHT22;23894;51.466;7.444;2022-09-21T13:08:31;28.90;99.90
38084;DHT22;23894;51.466;7.444;2022-09-21T13:10:42;29.70;99.90
38084;DHT22;23894;51.466;7.444;2022-09-21T13:12:45;29.60;99.90
38084;DHT22;23894;51.466;7.444;2022-09-21T13:14:51;28.80;99.90
38084;DHT22;23894;51.466;7.444;2022-09-21T13:16:56;28.00;99.90
38084;DHT22;23894;51.466;7.444;2022-09-21T13:23:36;28.10;99.90
38084;DHT22;23894;51.466;7.444;2022-09-21T13:25:46;28.90;99.90
38084;DHT22;23894;51.466;7.444;2022-09-21T13:28:15;29.30;99.90
38084;DHT22;23894;51.466;7.444;2022-09-21T13:32:50;28.40;99.90
38084;DHT22;23894;51.466;7.444;2022-09-21T13:34:51;28.60;99.90
38084;DHT22;23894;51.466;7.444;2022-09-21T13:39:19;29.90;99.90
38084;DHT22;23894;51.466;7.444;2022-09-21T13:41:27;30.50;99.90
38084;DHT22;23894;51.466;7.444;2022-09-21T13:45:52;30.60;99.90
38084;DHT22;23894;51.466;7.444;2022-09-21T13:47:55;29.80;99.90
38084;DHT22;23894;51.466;7.444;2022-09-21T13:50:11;29.30;99.90
38084;DHT22;23894;51.466;7.444;2022-09-21T13:54:15;29.60;99.90
38084;DHT22;23894;51.466;7.444;2022-09-21T13:56:19;30.00;99.90
38084;DHT22;23894;51.466;7.444;2022-09-21T13:58:28;30.40;99.90
38084;DHT22;23894;51.466;7.444;2022-09-21T14:00:37;30.80;99.90
38084;DHT22;23894;51.466;7.444;2022-09-21T14:02:44;31.00;99.90
38084;DHT22;23894;51.466;7.444;2022-09-21T14:04:47;30.90;99.90
38084;DHT22;23894;51.466;7.444;2022-09-21T14:06:50;30.80;99.90
38084;DHT22;23894;51.466;7.444;2022-09-21T14:09:04;30.50;99.90
38084;DHT22;23894;51.466;7.444;2022-09-21T14:13:28;29.20;99.90
38084;DHT22;23894;51.466;7.444;2022-09-21T14:37:03;24.00;99.90
38084;DHT22;23894;51.466;7.444;2022-09-21T14:39:14;23.70;99.90
38084;DHT22;23894;51.466;7.444;2022-09-21T14:41:19;23.40;99.90
38084;DHT22;23894;51.466;7.444;2022-09-21T14:43:32;23.20;99.90
38084;DHT22;23894;51.466;7.444;2022-09-21T14:45:47;23.00;99.90
38084;DHT22;23894;51.466;7.444;2022-09-21T15:01:38;21.80;99.90
38084;DHT22;23894;51.466;7.444;2022-09-21T15:03:58;21.80;99.90
38084;DHT22;23894;51.466;7.444;2022-09-21T15:06:18;21.70;99.90
38084;DHT22;23894;51.466;7.444;2022-09-21T15:08:53;21.60;99.90
38084;DHT22;23894;51.466;7.444;2022-09-21T15:13:56;21.40;99.90
38084;DHT22;23894;51.466;7.444;2022-09-21T15:18:21;21.40;99.90
38084;DHT22;23894;51.466;7.444;2022-09-21T15:20:22;21.30;99.90
38084;DHT22;23894;51.466;7.444;2022-09-21T15:22:23;21.40;99.90
38084;DHT22;23894;51.466;7.444;2022-09-21T15:24:32;21.40;99.90
38084;DHT22;23894;51.466;7.444;2022-09-21T15:26:33;21.40;99.90
38084;DHT22;23894;51.466;7.444;2022-09-21T15:28:43;21.40;99.90
38084;DHT22;23894;51.466;7.444;2022-09-21T15:30:49;21.30;99.90
38084;DHT22;23894;51.466;7.444;2022-09-21T15:32:53;21.30;99.90
38084;DHT22;23894;51.466;7.444;2022-09-21T15:35:00;21.30;99.90
38084;DHT22;23894;51.466;7.444;2022-09-21T15:37:14;21.10;99.90
38084;DHT22;23894;51.466;7.444;2022-09-21T15:39:27;21.00;99.90
38084;DHT22;23894;51.466;7.444;2022-09-21T15:41:43;20.90;99.90
38084;DHT22;23894;51.466;7.444;2022-09-21T15:43:48;20.80;99.90
38084;DHT22;23894;51.466;7.444;2022-09-21T15:46:05;20.70;99.90
38084;DHT22;23894;51.466;7.444;2022-09-21T15:48:11;20.70;99.90
38084;DHT22;23894;51.466;7.444;2022-09-21T15:50:16;20.60;99.90
38084;DHT22;23894;51.466;7.444;2022-09-21T15:52:35;20.50;99.90
38084;DHT22;23894;51.466;7.444;2022-09-21T15:54:44;20.50;99.90
38084;DHT22;23894;51.466;7.444;2022-09-21T17:00:59;17.70;99.90
38084;DHT22;23894;51.466;7.444;2022-09-21T17:03:00;17.60;99.90
38084;DHT22;23894;51.466;7.444;2022-09-21T17:05:01;17.50;99.90
38084;DHT22;23894;51.466;7.444;2022-09-21T17:07:02;17.40;99.90
38084;DHT22;23894;51.466;7.444;2022-09-21T17:11:16;17.20;99.90
38084;DHT22;23894;51.466;7.444;2022-09-21T17:13:19;17.10;99.90
38084;DHT22;23894;51.466;7.444;2022-09-21T17:15:20;17.00;99.90
38084;DHT22;23894;51.466;7.444;2022-09-21T17:17:23;16.90;99.90
38084;DHT22;23894;51.466;7.444;2022-09-21T17:19:24;16.80;99.90
38084;DHT22;23894;51.466;7.444;2022-09-21T17:21:24;16.70;99.90
38084;DHT22;23894;51.466;7.444;2022-09-21T17:23:26;16.60;99.90
38084;DHT22;23894;51.466;7.444;2022-09-21T17:25:29;16.50;99.90
38084;DHT22;23894;51.466;7.444;2022-09-21T17:27:29;16.40;99.90
38084;DHT22;23894;51.466;7.444;2022-09-21T17:29:31;16.20;99.90
38084;DHT22;23894;51.466;7.444;2022-09-21T17:31:38;16.10;99.90
38084;DHT22;23894;51.466;7.444;2022-09-21T17:33:40;16.00;99.90
38084;DHT22;23894;51.466;7.444;2022-09-21T17:35:41;15.90;99.90
38084;DHT22;23894;51.466;7.444;2022-09-21T17:37:42;15.80;99.90
38084;DHT22;23894;51.466;7.444;2022-09-21T17:39:42;15.60;99.90
38084;DHT22;23894;51.466;7.444;2022-09-21T17:44:03;15.40;99.90
38084;DHT22;23894;51.466;7.444;2022-09-21T17:46:18;15.40;99.90
38084;DHT22;23894;51.466;7.444;2022-09-21T17:48:21;15.30;99.90
38084;DHT22;23894;51.466;7.444;2022-09-21T17:50:24;15.20;99.90
38084;DHT22;23894;51.466;7.444;2022-09-21T17:52:26;15.10;99.90
38084;DHT22;23894;51.466;7.444;2022-09-21T17:54:46;15.00;99.90
38084;DHT22;23894;51.466;7.444;2022-09-21T17:56:51;14.90;99.90
38084;DHT22;23894;51.466;7.444;2022-09-21T17:59:00;14.80;99.90
38084;DHT22;23894;51.466;7.444;2022-09-21T18:01:06;14.80;99.90
38084;DHT22;23894;51.466;7.444;2022-09-21T18:03:23;14.70;99.90